Time;durP1;ratioP1;P1;durP2;ratioP2;P2;SDS_P1;SDS_P2;PMS_P1;PMS_P2;Temp;Humidity;BMP_temperature;BMP_pressure;BME280_temperature;BME280_humidity;BME280_pressure;Samples;Min_cycle;Max_cycle;Signal;HPM_P1;HPM_P2
2022/03/11 00:01:35;;;;;;;19.52;9.35;;;;;;;;;;5048686;28;20040;-71
2022/03/11 00:04:00;;;;;;;18.73;9.85;;;;;;;;;;5048689;28;20053;-72
2022/03/11 00:06:25;;;;;;;18.67;11.23;;;;;;;;;;5053777;28;20479;-70
2022/03/11 00:08:51;;;;;;;20.20;11.43;;;;;;;;;;5049662;28;20055;-73
2022/03/11 00:11:16;;;;;;;21.17;11.77;;;;;;;;;;5053576;28;20025;-72
2022/03/11 00:13:42;;;;;;;19.40;11.73;;;;;;;;;;5054773;28;20020;-70
2022/03/11 00:16:07;;;;;;;18.95;11.02;;;;;;;;;;5060284;28;20026;-72
2022/03/11 00:18:33;;;;;;;19.23;11.18;;;;;;;;;;5053235;28;20066;-72
2022/03/11 00:20:58;;;;;;;19.30;10.70;;;;;;;;;;5059213;28;20567;-72
2022/03/11 00:23:23;;;;;;;21.60;12.25;;;;;;;;;;5053241;28;20013;-72
2022/03/11 00:25:48;;;;;;;21.52;12.52;;;;;;;;;;5034058;28;20018;-71
2022/03/11 00:28:14;;;;;;;24.15;12.77;;;;;;;;;;5053292;28;20396;-71
2022/03/11 00:30:39;;;;;;;20.33;12.10;;;;;;;;;;5057193;28;20484;-70
2022/03/11 00:33:04;;;;;;;21.40;12.85;;;;;;;;;;5056794;28;20083;-73
2022/03/11 00:35:32;;;;;;;25.80;13.23;;;;;;;;;;5053068;28;20045;-71
2022/03/11 00:37:58;;;;;;;22.17;13.00;;;;;;;;;;5055339;28;20059;-72
2022/03/11 00:40:23;;;;;;;20.42;12.23;;;;;;;;;;5051715;28;20108;-72
2022/03/11 00:42:49;;;;;;;21.30;11.90;;;;;;;;;;5052793;28;20108;-72
2022/03/11 00:45:14;;;;;;;24.48;12.57;;;;;;;;;;5053234;28;20024;-71
2022/03/11 00:47:39;;;;;;;23.65;12.38;;;;;;;;;;5052818;28;20029;-72
2022/03/11 00:50:05;;;;;;;22.33;12.15;;;;;;;;;;5032872;28;20048;-70
2022/03/11 00:52:30;;;;;;;23.48;12.27;;;;;;;;;;5040133;28;20734;-72
2022/03/11 00:54:55;;;;;;;23.08;13.00;;;;;;;;;;5051269;28;20094;-71
2022/03/11 00:57:20;;;;;;;27.17;14.60;;;;;;;;;;5052126;28;20025;-72
2022/03/11 00:59:46;;;;;;;29.40;15.38;;;;;;;;;;5052801;28;20025;-72
2022/03/11 01:02:11;;;;;;;27.17;15.00;;;;;;;;;;5050464;28;20037;-71
2022/03/11 01:04:37;;;;;;;30.60;15.48;;;;;;;;;;5051773;28;20032;-72
2022/03/11 01:07:02;;;;;;;28.42;14.88;;;;;;;;;;5052605;28;20017;-71
2022/03/11 01:09:27;;;;;;;27.08;15.35;;;;;;;;;;5052499;28;20500;-72
2022/03/11 01:11:52;;;;;;;28.08;14.98;;;;;;;;;;5051042;28;20028;-72
2022/03/11 01:14:17;;;;;;;30.17;14.82;;;;;;;;;;5052087;28;20033;-72
2022/03/11 01:16:43;;;;;;;19.00;11.00;;;;;;;;;;5052205;28;20021;-72
2022/03/11 01:19:08;;;;;;;19.30;10.60;;;;;;;;;;5052245;28;20485;-71
2022/03/11 01:21:33;;;;;;;19.40;10.95;;;;;;;;;;5050820;28;20432;-72
2022/03/11 01:23:58;;;;;;;25.80;12.32;;;;;;;;;;5052080;28;20028;-72
2022/03/11 01:26:23;;;;;;;25.70;13.90;;;;;;;;;;5052186;28;20025;-71
2022/03/11 01:28:49;;;;;;;25.02;13.77;;;;;;;;;;5052022;28;20032;-72
2022/03/11 01:31:16;;;;;;;25.10;14.10;;;;;;;;;;5055495;28;20059;-71
2022/03/11 01:33:41;;;;;;;29.83;15.77;;;;;;;;;;5051722;28;20032;-70
2022/03/11 01:36:07;;;;;;;28.00;14.80;;;;;;;;;;5050559;28;20016;-72
2022/03/11 01:38:32;;;;;;;26.45;14.43;;;;;;;;;;5051096;28;20029;-72
2022/03/11 01:40:57;;;;;;;27.23;14.90;;;;;;;;;;5051655;28;20061;-72
2022/03/11 01:43:22;;;;;;;31.90;15.48;;;;;;;;;;5051531;28;20059;-71
2022/03/11 01:45:48;;;;;;;25.92;14.80;;;;;;;;;;5051731;28;20017;-72
2022/03/11 01:48:13;;;;;;;28.17;14.55;;;;;;;;;;5051419;28;20036;-72
2022/03/11 01:50:38;;;;;;;31.05;14.60;;;;;;;;;;5051196;28;20055;-70
2022/03/11 01:53:04;;;;;;;29.27;14.45;;;;;;;;;;5050119;28;20032;-71
2022/03/11 01:55:29;;;;;;;22.50;13.90;;;;;;;;;;5050976;28;20035;-72
2022/03/11 01:57:54;;;;;;;28.20;13.07;;;;;;;;;;5050171;28;20462;-71
2022/03/11 02:00:19;;;;;;;25.92;13.43;;;;;;;;;;5050388;28;20064;-72
2022/03/11 02:02:44;;;;;;;30.63;13.55;;;;;;;;;;5050358;28;20024;-71
2022/03/11 02:05:10;;;;;;;22.92;12.95;;;;;;;;;;5035347;28;20020;-72
2022/03/11 02:07:35;;;;;;;31.17;13.98;;;;;;;;;;5051316;28;20027;-72
2022/03/11 02:10:00;;;;;;;20.85;12.45;;;;;;;;;;5062350;28;20743;-72
2022/03/11 02:12:26;;;;;;;27.35;13.20;;;;;;;;;;5051050;28;20447;-70
2022/03/11 02:14:51;;;;;;;22.98;13.02;;;;;;;;;;5060405;28;20020;-71
2022/03/11 02:17:16;;;;;;;27.13;13.60;;;;;;;;;;5051244;28;20083;-72
2022/03/11 02:19:41;;;;;;;22.60;13.77;;;;;;;;;;5049870;28;20025;-71
2022/03/11 02:22:07;;;;;;;27.50;14.32;;;;;;;;;;5050860;28;20418;-72
2022/03/11 02:24:32;;;;;;;23.63;13.93;;;;;;;;;;5049405;28;20021;-72
2022/03/11 02:26:57;;;;;;;34.75;15.18;;;;;;;;;;5051390;28;20032;-71
2022/03/11 02:29:22;;;;;;;35.17;15.90;;;;;;;;;;5050686;28;20017;-72
2022/03/11 02:31:47;;;;;;;27.52;14.98;;;;;;;;;;5049753;28;20029;-71
2022/03/11 02:34:13;;;;;;;33.40;15.52;;;;;;;;;;5050333;28;20017;-71
2022/03/11 02:36:38;;;;;;;29.98;15.60;;;;;;;;;;5050477;28;20021;-72
2022/03/11 02:39:04;;;;;;;29.63;15.10;;;;;;;;;;5050907;28;20056;-72
2022/03/11 02:41:29;;;;;;;30.48;15.00;;;;;;;;;;5050448;28;20021;-72
2022/03/11 02:43:54;;;;;;;27.45;14.93;;;;;;;;;;5050625;28;20574;-70
2022/03/11 02:46:20;;;;;;;27.45;15.43;;;;;;;;;;5050802;28;20024;-71
2022/03/11 02:48:45;;;;;;;27.27;15.30;;;;;;;;;;5050683;28;20024;-72
2022/03/11 02:51:10;;;;;;;27.00;14.68;;;;;;;;;;5050630;28;20580;-71
2022/03/11 02:53:40;;;;;;;28.90;15.32;;;;;;;;;;5049256;28;20103;-72
2022/03/11 02:56:06;;;;;;;26.63;14.48;;;;;;;;;;5049881;28;20512;-71
2022/03/11 02:58:31;;;;;;;30.05;15.30;;;;;;;;;;5050256;28;20029;-71
2022/03/11 03:00:59;;;;;;;29.17;14.27;;;;;;;;;;5065270;28;20040;-72
2022/03/11 03:03:24;;;;;;;25.88;13.88;;;;;;;;;;5037370;28;20029;-72
2022/03/11 03:05:49;;;;;;;25.83;14.38;;;;;;;;;;5051029;28;20024;-71
2022/03/11 03:08:14;;;;;;;26.15;13.52;;;;;;;;;;5050155;28;20033;-71
2022/03/11 03:10:40;;;;;;;22.23;12.48;;;;;;;;;;5050150;28;20020;-72
2022/03/11 03:13:05;;;;;;;26.98;13.32;;;;;;;;;;5050178;28;20431;-72
2022/03/11 03:15:32;;;;;;;27.52;13.18;;;;;;;;;;5049740;28;20028;-71
2022/03/11 03:17:57;;;;;;;24.95;13.32;;;;;;;;;;5060520;28;20147;-71
2022/03/11 03:20:22;;;;;;;25.55;14.70;;;;;;;;;;5055355;28;20079;-72
2022/03/11 03:22:47;;;;;;;29.45;15.52;;;;;;;;;;5050108;28;20017;-71
2022/03/11 03:25:13;;;;;;;25.08;14.27;;;;;;;;;;5062843;28;20017;-71
2022/03/11 03:27:38;;;;;;;24.73;14.70;;;;;;;;;;5049793;28;20053;-72
2022/03/11 03:30:04;;;;;;;25.77;14.77;;;;;;;;;;5049639;28;20074;-71
2022/03/11 03:32:29;;;;;;;24.88;14.13;;;;;;;;;;5048589;28;20513;-72
2022/03/11 03:34:54;;;;;;;27.63;14.23;;;;;;;;;;5050022;28;20044;-72
2022/03/11 03:37:20;;;;;;;24.58;14.13;;;;;;;;;;5050230;28;20066;-71
2022/03/11 03:39:45;;;;;;;25.13;14.60;;;;;;;;;;5048522;28;20089;-72
2022/03/11 03:42:10;;;;;;;27.80;14.80;;;;;;;;;;5050048;28;20024;-71
2022/03/11 03:44:35;;;;;;;25.10;14.07;;;;;;;;;;5050278;28;20104;-70
2022/03/11 03:47:00;;;;;;;26.92;13.75;;;;;;;;;;5054078;28;20643;-72
2022/03/11 03:49:26;;;;;;;23.58;13.20;;;;;;;;;;5052237;28;20151;-71
2022/03/11 03:51:51;;;;;;;24.27;13.70;;;;;;;;;;5053815;28;20400;-72
2022/03/11 03:54:17;;;;;;;23.88;13.63;;;;;;;;;;5052600;28;20036;-71
2022/03/11 03:56:42;;;;;;;27.40;12.90;;;;;;;;;;5054035;28;20533;-71
2022/03/11 03:59:08;;;;;;;24.27;12.70;;;;;;;;;;5051938;28;20028;-71
2022/03/11 04:01:37;;;;;;;24.10;12.50;;;;;;;;;;5065594;28;20400;-71
2022/03/11 04:04:03;;;;;;;24.63;12.35;;;;;;;;;;5060930;28;20027;-71
2022/03/11 04:06:28;;;;;;;23.50;12.68;;;;;;;;;;5071387;28;20016;-71
2022/03/11 04:08:56;;;;;;;22.58;12.73;;;;;;;;;;5067925;28;20032;-71
2022/03/11 04:11:21;;;;;;;25.88;13.50;;;;;;;;;;5053519;28;20040;-72
2022/03/11 04:13:47;;;;;;;27.50;13.35;;;;;;;;;;5053695;28;20029;-71
2022/03/11 04:16:12;;;;;;;26.13;12.95;;;;;;;;;;5054952;28;20025;-71
2022/03/11 04:18:37;;;;;;;25.65;12.60;;;;;;;;;;5077182;28;20035;-71
2022/03/11 04:21:02;;;;;;;23.60;12.30;;;;;;;;;;5071292;28;20033;-72
2022/03/11 04:23:27;;;;;;;22.00;12.00;;;;;;;;;;5062105;28;20067;-71
2022/03/11 04:25:53;;;;;;;22.35;11.70;;;;;;;;;;5069249;28;20520;-71
2022/03/11 04:28:18;;;;;;;25.08;12.43;;;;;;;;;;5066852;28;20021;-69
2022/03/11 04:30:43;;;;;;;22.55;12.40;;;;;;;;;;5070443;28;20024;-72
2022/03/11 04:33:08;;;;;;;21.55;12.05;;;;;;;;;;5064423;28;20111;-70
2022/03/11 04:35:33;;;;;;;23.48;12.48;;;;;;;;;;5073061;28;20025;-71
2022/03/11 04:37:59;;;;;;;24.75;12.88;;;;;;;;;;5073279;28;20027;-70
2022/03/11 04:40:24;;;;;;;24.02;12.65;;;;;;;;;;5071205;28;20021;-71
2022/03/11 04:42:49;;;;;;;22.77;12.95;;;;;;;;;;5053111;28;20120;-70
2022/03/11 04:45:14;;;;;;;27.42;13.57;;;;;;;;;;5052936;28;20104;-71
2022/03/11 04:47:39;;;;;;;25.90;13.07;;;;;;;;;;5058380;28;20026;-71
2022/03/11 04:50:05;;;;;;;29.33;12.85;;;;;;;;;;5071983;28;20374;-71
2022/03/11 04:52:30;;;;;;;23.42;13.13;;;;;;;;;;5071393;28;20032;-71
2022/03/11 04:54:55;;;;;;;24.67;13.40;;;;;;;;;;5065066;28;20083;-71
2022/03/11 04:57:20;;;;;;;26.63;13.23;;;;;;;;;;5064490;28;20392;-71
2022/03/11 04:59:46;;;;;;;29.13;14.63;;;;;;;;;;5065119;28;20485;-71
2022/03/11 05:02:11;;;;;;;26.40;13.52;;;;;;;;;;5067560;28;20067;-69
2022/03/11 05:04:36;;;;;;;27.73;14.48;;;;;;;;;;5071719;28;20790;-71
2022/03/11 05:07:01;;;;;;;27.00;13.30;;;;;;;;;;5072324;28;20475;-71
2022/03/11 05:09:26;;;;;;;22.60;12.10;;;;;;;;;;5071148;28;20567;-70
2022/03/11 05:11:52;;;;;;;25.25;14.05;;;;;;;;;;5070632;28;20169;-71
2022/03/11 05:14:17;;;;;;;25.20;13.95;;;;;;;;;;5071586;28;20624;-70
2022/03/11 05:16:42;;;;;;;27.63;13.55;;;;;;;;;;5069978;28;20024;-71
2022/03/11 05:19:07;;;;;;;26.63;13.23;;;;;;;;;;5071497;28;20017;-71
2022/03/11 05:21:33;;;;;;;24.95;13.13;;;;;;;;;;5068850;28;20078;-71
2022/03/11 05:23:59;;;;;;;25.75;14.77;;;;;;;;;;5071917;28;20564;-72
2022/03/11 05:26:25;;;;;;;26.13;13.15;;;;;;;;;;5071786;28;20067;-71
2022/03/11 05:28:54;;;;;;;26.38;13.27;;;;;;;;;;5070141;28;20086;-70
2022/03/11 05:31:20;;;;;;;33.88;12.77;;;;;;;;;;5068942;28;20040;-71
2022/03/11 05:33:45;;;;;;;26.20;13.48;;;;;;;;;;5056882;28;20028;-71
2022/03/11 05:36:10;;;;;;;25.38;13.27;;;;;;;;;;5076517;28;20031;-70
2022/03/11 05:38:35;;;;;;;24.70;13.90;;;;;;;;;;5055652;28;20570;-71
2022/03/11 05:41:00;;;;;;;25.00;12.60;;;;;;;;;;5060138;28;20029;-69
2022/03/11 05:43:26;;;;;;;26.40;13.95;;;;;;;;;;5060005;28;20024;-71
2022/03/11 05:45:51;;;;;;;26.55;13.18;;;;;;;;;;5064698;28;20029;-71
2022/03/11 05:48:16;;;;;;;24.08;13.23;;;;;;;;;;5063598;28;20027;-71
2022/03/11 05:50:41;;;;;;;22.10;12.63;;;;;;;;;;5066329;28;20025;-71
2022/03/11 05:53:06;;;;;;;26.48;12.75;;;;;;;;;;5065916;28;20055;-71
2022/03/11 05:55:32;;;;;;;26.15;13.07;;;;;;;;;;5057276;28;20033;-71
2022/03/11 05:57:57;;;;;;;23.92;12.75;;;;;;;;;;5056934;28;20622;-71
2022/03/11 06:00:22;;;;;;;23.77;12.05;;;;;;;;;;5059143;28;20041;-71
2022/03/11 06:02:47;;;;;;;25.60;12.52;;;;;;;;;;5065050;28;20055;-71
2022/03/11 06:05:12;;;;;;;26.40;13.32;;;;;;;;;;5066901;28;20019;-71
2022/03/11 06:07:38;;;;;;;25.88;12.93;;;;;;;;;;5057113;28;20029;-71
2022/03/11 06:10:03;;;;;;;23.20;11.75;;;;;;;;;;5055000;28;20103;-71
2022/03/11 06:12:28;;;;;;;22.90;12.45;;;;;;;;;;5057349;28;20492;-70
2022/03/11 06:14:54;;;;;;;21.90;11.98;;;;;;;;;;5059475;28;20032;-71
2022/03/11 06:17:19;;;;;;;24.88;13.23;;;;;;;;;;5066713;28;20024;-70
2022/03/11 06:19:44;;;;;;;25.58;12.65;;;;;;;;;;5060157;28;20548;-71
2022/03/11 06:22:09;;;;;;;24.50;12.50;;;;;;;;;;5065811;28;20115;-72
2022/03/11 06:24:34;;;;;;;24.67;12.77;;;;;;;;;;5055228;28;20020;-71
2022/03/11 06:27:00;;;;;;;24.05;13.07;;;;;;;;;;5057265;28;20075;-71
2022/03/11 06:29:25;;;;;;;27.80;12.77;;;;;;;;;;5066216;28;20027;-72
2022/03/11 06:31:50;;;;;;;25.83;13.27;;;;;;;;;;5043171;28;20041;-71
2022/03/11 06:34:15;;;;;;;23.02;12.75;;;;;;;;;;5037356;28;20048;-72
2022/03/11 06:36:40;;;;;;;26.85;13.10;;;;;;;;;;5045916;28;20025;-71
2022/03/11 06:39:07;;;;;;;23.67;13.07;;;;;;;;;;5042728;28;20093;-71
2022/03/11 06:41:32;;;;;;;22.38;12.52;;;;;;;;;;5039563;28;20017;-72
2022/03/11 06:43:58;;;;;;;28.85;13.10;;;;;;;;;;5044283;28;20028;-72
2022/03/11 06:46:23;;;;;;;27.75;12.93;;;;;;;;;;5042221;28;20028;-69
2022/03/11 06:48:48;;;;;;;23.58;13.48;;;;;;;;;;5038867;28;20025;-70
2022/03/11 06:51:13;;;;;;;26.13;13.30;;;;;;;;;;5041324;28;20032;-70
2022/03/11 06:53:38;;;;;;;25.25;13.20;;;;;;;;;;5042365;28;20036;-69
2022/03/11 06:56:04;;;;;;;26.58;13.23;;;;;;;;;;5034956;28;20495;-70
2022/03/11 06:58:30;;;;;;;24.38;13.45;;;;;;;;;;5038767;28;20597;-70
2022/03/11 07:00:55;;;;;;;30.83;13.98;;;;;;;;;;5041828;28;20067;-73
2022/03/11 07:03:20;;;;;;;29.10;13.38;;;;;;;;;;5049953;28;20025;-70
2022/03/11 07:05:46;;;;;;;23.00;13.05;;;;;;;;;;5052352;28;20540;-73
2022/03/11 07:08:12;;;;;;;22.73;12.55;;;;;;;;;;5047976;28;20040;-70
2022/03/11 07:10:37;;;;;;;30.25;13.23;;;;;;;;;;5040103;28;20715;-71
2022/03/11 07:13:03;;;;;;;26.35;14.30;;;;;;;;;;5049700;28;20021;-70
2022/03/11 07:15:28;;;;;;;25.65;13.60;;;;;;;;;;5049198;28;20033;-71
2022/03/11 07:17:53;;;;;;;31.65;14.65;;;;;;;;;;5049808;28;20385;-70
2022/03/11 07:20:19;;;;;;;23.40;13.10;;;;;;;;;;5052421;28;20116;-71
2022/03/11 07:22:47;;;;;;;21.85;12.52;;;;;;;;;;5053570;28;20021;-71
2022/03/11 07:25:13;;;;;;;22.40;12.75;;;;;;;;;;5051573;28;20568;-71
2022/03/11 07:27:38;;;;;;;24.88;12.98;;;;;;;;;;5054098;28;20037;-70
2022/03/11 07:30:03;;;;;;;20.05;11.95;;;;;;;;;;5055781;28;20087;-71
2022/03/11 07:32:29;;;;;;;27.33;13.05;;;;;;;;;;5050744;28;20029;-71
2022/03/11 07:34:54;;;;;;;24.90;12.82;;;;;;;;;;5057674;28;21991;-69
2022/03/11 07:37:21;;;;;;;23.05;12.43;;;;;;;;;;5053969;28;20035;-70
2022/03/11 07:39:46;;;;;;;22.15;12.10;;;;;;;;;;5047209;28;20025;-69
2022/03/11 07:42:12;;;;;;;24.00;12.48;;;;;;;;;;5064835;28;20036;-71
2022/03/11 07:44:40;;;;;;;21.92;12.85;;;;;;;;;;5052059;28;20028;-70
2022/03/11 07:47:05;;;;;;;26.85;12.40;;;;;;;;;;5052118;28;20025;-70
2022/03/11 07:49:31;;;;;;;26.05;12.52;;;;;;;;;;5055449;28;20093;-70
2022/03/11 07:51:56;;;;;;;23.00;12.70;;;;;;;;;;5051516;28;20028;-69
2022/03/11 07:54:21;;;;;;;19.58;11.90;;;;;;;;;;5059268;28;20507;-70
2022/03/11 07:56:46;;;;;;;21.77;12.07;;;;;;;;;;5055488;28;20028;-71
2022/03/11 07:59:12;;;;;;;22.23;12.60;;;;;;;;;;5053130;28;20026;-71
2022/03/11 08:01:37;;;;;;;22.98;12.65;;;;;;;;;;5053949;28;20078;-71
2022/03/11 08:04:03;;;;;;;23.13;12.13;;;;;;;;;;5053760;28;20043;-70
2022/03/11 08:06:28;;;;;;;21.55;11.57;;;;;;;;;;5056634;28;20013;-71
2022/03/11 08:08:54;;;;;;;18.33;10.73;;;;;;;;;;5056771;28;20028;-70
2022/03/11 08:11:19;;;;;;;21.60;11.10;;;;;;;;;;5052452;28;20017;-70
2022/03/11 08:13:44;;;;;;;18.30;10.52;;;;;;;;;;5052586;28;20025;-71
2022/03/11 08:16:09;;;;;;;22.27;10.98;;;;;;;;;;5052075;28;20227;-71
2022/03/11 08:18:35;;;;;;;19.13;10.18;;;;;;;;;;5052843;28;20028;-71
2022/03/11 08:21:01;;;;;;;19.48;10.63;;;;;;;;;;5052265;28;20102;-70
2022/03/11 08:23:26;;;;;;;16.50;10.18;;;;;;;;;;5055522;28;20025;-71
2022/03/11 08:25:52;;;;;;;16.77;9.20;;;;;;;;;;5056664;28;20047;-70
2022/03/11 08:28:21;;;;;;;17.10;10.32;;;;;;;;;;5057173;28;20384;-71
2022/03/11 08:30:47;;;;;;;18.13;10.88;;;;;;;;;;5048634;28;20040;-70
2022/03/11 08:33:12;;;;;;;23.33;9.90;;;;;;;;;;5054505;28;20109;-70
2022/03/11 08:35:37;;;;;;;18.77;10.13;;;;;;;;;;5056608;28;20450;-70
2022/03/11 08:38:06;;;;;;;15.50;9.25;;;;;;;;;;5052117;28;20044;-70
2022/03/11 08:40:31;;;;;;;15.55;9.05;;;;;;;;;;5057242;28;20036;-70
2022/03/11 08:42:56;;;;;;;21.38;10.40;;;;;;;;;;5051856;28;20068;-69
2022/03/11 08:45:22;;;;;;;16.73;9.32;;;;;;;;;;5051664;28;20039;-71
2022/03/11 08:47:48;;;;;;;20.63;10.02;;;;;;;;;;5051058;28;20028;-72
2022/03/11 08:50:13;;;;;;;18.52;9.65;;;;;;;;;;5050448;28;20039;-72
2022/03/11 08:52:39;;;;;;;16.10;8.98;;;;;;;;;;5051028;28;20033;-71
2022/03/11 08:55:04;;;;;;;18.45;10.43;;;;;;;;;;5053730;28;20481;-71
2022/03/11 08:57:29;;;;;;;20.80;9.52;;;;;;;;;;5049996;28;20017;-72
2022/03/11 08:59:55;;;;;;;15.93;9.82;;;;;;;;;;5054543;28;20028;-71
2022/03/11 09:02:23;;;;;;;20.40;9.40;;;;;;;;;;5051125;28;20029;-72
2022/03/11 09:04:48;;;;;;;15.75;9.15;;;;;;;;;;5055554;28;20036;-71
2022/03/11 09:07:13;;;;;;;15.80;9.10;;;;;;;;;;5050237;28;20392;-72
2022/03/11 09:09:39;;;;;;;16.83;9.55;;;;;;;;;;5052806;28;20025;-72
2022/03/11 09:12:04;;;;;;;15.07;9.30;;;;;;;;;;5050668;28;20468;-70
2022/03/11 09:14:30;;;;;;;16.23;9.45;;;;;;;;;;5058467;28;20017;-72
2022/03/11 09:16:55;;;;;;;16.15;9.00;;;;;;;;;;5052377;28;20510;-72
2022/03/11 09:19:20;;;;;;;20.33;8.90;;;;;;;;;;5052686;28;20079;-72
2022/03/11 09:21:45;;;;;;;15.77;9.10;;;;;;;;;;5047687;28;20079;-71
2022/03/11 09:24:11;;;;;;;21.10;9.25;;;;;;;;;;5056038;28;20028;-72
2022/03/11 09:26:36;;;;;;;15.13;8.43;;;;;;;;;;5050323;28;20028;-72
2022/03/11 09:29:01;;;;;;;15.30;8.35;;;;;;;;;;5054644;28;20123;-71
2022/03/11 09:31:26;;;;;;;16.38;8.20;;;;;;;;;;5046186;28;20040;-72
2022/03/11 09:33:51;;;;;;;15.50;8.48;;;;;;;;;;5052014;28;20071;-70
2022/03/11 09:36:17;;;;;;;17.80;9.00;;;;;;;;;;5051558;28;20036;-72
2022/03/11 09:38:42;;;;;;;14.90;8.77;;;;;;;;;;5050846;28;20477;-72
2022/03/11 09:41:07;;;;;;;13.68;8.48;;;;;;;;;;5060595;28;20020;-72
2022/03/11 09:43:32;;;;;;;16.73;8.27;;;;;;;;;;5050391;28;20067;-73
2022/03/11 09:45:58;;;;;;;12.32;7.78;;;;;;;;;;5048746;28;20028;-72
2022/03/11 09:48:23;;;;;;;12.40;7.47;;;;;;;;;;5051442;28;20052;-72
2022/03/11 09:50:48;;;;;;;10.50;7.30;;;;;;;;;;5049711;28;20128;-71
2022/03/11 09:53:14;;;;;;;15.10;8.52;;;;;;;;;;5050936;28;20025;-72
2022/03/11 09:55:39;;;;;;;18.60;8.02;;;;;;;;;;5051046;28;20108;-71
2022/03/11 09:58:04;;;;;;;13.25;8.00;;;;;;;;;;5053236;28;20143;-72
2022/03/11 10:00:29;;;;;;;17.35;7.90;;;;;;;;;;5052390;28;20037;-73
2022/03/11 10:02:55;;;;;;;14.90;7.90;;;;;;;;;;5049616;28;20028;-74
2022/03/11 10:05:21;;;;;;;13.27;7.75;;;;;;;;;;5054750;28;20103;-72
2022/03/11 10:07:56;;;;;;;15.13;7.78;;;;;;;;;;5051815;28;20365;-71
2022/03/11 10:10:22;;;;;;;13.52;7.82;;;;;;;;;;5051429;28;20025;-70
2022/03/11 10:12:47;;;;;;;15.88;8.18;;;;;;;;;;5052086;28;20123;-72
2022/03/11 10:15:13;;;;;;;12.27;8.02;;;;;;;;;;5051622;28;20021;-71
2022/03/11 10:17:41;;;;;;;12.57;7.75;;;;;;;;;;5050185;28;20070;-71
2022/03/11 10:20:10;;;;;;;15.65;8.43;;;;;;;;;;5052815;28;20043;-71
2022/03/11 10:22:36;;;;;;;13.02;7.60;;;;;;;;;;5047447;28;20021;-72
2022/03/11 10:25:23;;;;;;;10.38;6.55;;;;;;;;;;5048877;28;20025;-72
2022/03/11 10:27:55;;;;;;;13.80;7.45;;;;;;;;;;5051108;28;20024;-72
2022/03/11 10:30:20;;;;;;;11.68;7.75;;;;;;;;;;5048775;28;20024;-72
2022/03/11 10:32:49;;;;;;;12.57;7.95;;;;;;;;;;5066163;28;20028;-73
2022/03/11 10:35:18;;;;;;;13.95;8.05;;;;;;;;;;5066308;28;20115;-71
2022/03/11 10:37:54;;;;;;;16.92;7.65;;;;;;;;;;5069298;28;20020;-71
2022/03/11 10:40:19;;;;;;;13.88;8.02;;;;;;;;;;5065626;28;20029;-72
2022/03/11 10:42:44;;;;;;;12.30;6.97;;;;;;;;;;5062275;28;20032;-71
2022/03/11 10:45:10;;;;;;;11.52;6.97;;;;;;;;;;5055761;28;20459;-72
2022/03/11 10:47:36;;;;;;;12.45;7.10;;;;;;;;;;5061302;28;20171;-70
2022/03/11 10:50:02;;;;;;;13.85;8.18;;;;;;;;;;5063539;28;20024;-70
2022/03/11 10:52:31;;;;;;;11.95;7.50;;;;;;;;;;5057707;28;20027;-70
2022/03/11 10:54:56;;;;;;;14.27;7.63;;;;;;;;;;5060428;28;20021;-71
2022/03/11 10:57:22;;;;;;;13.75;7.05;;;;;;;;;;5062203;28;20067;-73
2022/03/11 10:59:47;;;;;;;12.02;6.50;;;;;;;;;;5055285;28;21338;-70
2022/03/11 11:02:12;;;;;;;10.80;6.60;;;;;;;;;;5059994;28;20098;-71
2022/03/11 11:04:37;;;;;;;11.68;6.70;;;;;;;;;;5062354;28;20027;-70
2022/03/11 11:07:04;;;;;;;13.55;6.68;;;;;;;;;;5060440;28;20024;-72
2022/03/11 11:09:30;;;;;;;13.77;6.18;;;;;;;;;;5059299;28;20106;-70
2022/03/11 11:11:55;;;;;;;9.05;6.25;;;;;;;;;;5060717;28;20536;-73
2022/03/11 11:14:20;;;;;;;11.98;7.03;;;;;;;;;;5058810;28;20107;-71
2022/03/11 11:16:46;;;;;;;14.75;6.57;;;;;;;;;;5062361;28;20027;-72
2022/03/11 11:19:15;;;;;;;13.05;6.85;;;;;;;;;;5061798;28;20408;-71
2022/03/11 11:21:41;;;;;;;13.38;7.50;;;;;;;;;;5060566;28;20024;-71
2022/03/11 11:24:14;;;;;;;14.52;6.80;;;;;;;;;;5057439;28;20101;-69
2022/03/11 11:26:40;;;;;;;13.02;6.97;;;;;;;;;;5079209;28;20021;-72
2022/03/11 11:29:05;;;;;;;12.55;6.28;;;;;;;;;;5063890;28;20099;-70
2022/03/11 11:31:31;;;;;;;11.48;7.18;;;;;;;;;;5055444;28;20128;-71
2022/03/11 11:33:56;;;;;;;12.32;7.00;;;;;;;;;;5060237;28;20094;-72
2022/03/11 11:36:39;;;;;;;14.60;7.18;;;;;;;;;;5061921;28;20083;-71
2022/03/11 11:39:05;;;;;;;12.00;6.85;;;;;;;;;;5060104;28;20099;-72
2022/03/11 11:41:31;;;;;;;15.55;7.13;;;;;;;;;;5059172;28;20139;-72
2022/03/11 11:44:03;;;;;;;15.82;7.00;;;;;;;;;;5067551;28;20387;-71
2022/03/11 11:46:28;;;;;;;11.05;6.85;;;;;;;;;;5059378;28;20021;-71
2022/03/11 11:48:54;;;;;;;13.80;7.15;;;;;;;;;;5063382;28;20036;-72
2022/03/11 11:51:20;;;;;;;11.30;6.45;;;;;;;;;;5059470;28;20039;-72
2022/03/11 11:53:45;;;;;;;14.15;7.30;;;;;;;;;;5061981;28;20392;-73
2022/03/11 11:56:26;;;;;;;10.93;6.60;;;;;;;;;;5061442;28;20240;-72
2022/03/11 11:58:51;;;;;;;12.43;7.05;;;;;;;;;;5065215;28;20033;-71
2022/03/11 12:01:35;;;;;;;13.55;7.25;;;;;;;;;;5060150;28;20505;-72
2022/03/11 12:04:07;;;;;;;11.15;6.90;;;;;;;;;;5057809;28;20028;-72
2022/03/11 12:06:51;;;;;;;17.02;7.20;;;;;;;;;;5061015;28;20047;-72
2022/03/11 12:09:35;;;;;;;11.70;7.32;;;;;;;;;;5065532;28;20396;-73
2022/03/11 12:12:00;;;;;;;11.20;6.90;;;;;;;;;;5066568;28;20366;-71
2022/03/11 12:14:25;;;;;;;13.68;7.57;;;;;;;;;;5065183;28;20029;-72
2022/03/11 12:17:01;;;;;;;10.63;7.15;;;;;;;;;;5061377;28;20025;-71
2022/03/11 12:19:36;;;;;;;11.48;7.13;;;;;;;;;;5061420;28;20021;-71
2022/03/11 12:22:01;;;;;;;17.45;7.28;;;;;;;;;;5067700;28;20036;-71
2022/03/11 12:24:35;;;;;;;12.68;7.55;;;;;;;;;;5064659;28;20103;-71
2022/03/11 12:27:00;;;;;;;;;;;;;;;;;;5067933;28;20067;-70
2022/03/11 12:29:29;;;;;;;12.73;6.10;;;;;;;;;;5068747;28;19912;-73
2022/03/11 12:31:54;;;;;;;11.63;6.85;;;;;;;;;;5054261;28;20266;-71
2022/03/11 12:34:19;;;;;;;11.30;7.18;;;;;;;;;;5035024;28;20025;-70
2022/03/11 12:36:47;;;;;;;11.52;7.32;;;;;;;;;;5050058;28;20071;-71
2022/03/11 12:39:12;;;;;;;11.45;6.82;;;;;;;;;;5050779;28;20023;-70
2022/03/11 12:41:38;;;;;;;14.63;7.20;;;;;;;;;;5049896;28;20033;-70
2022/03/11 12:44:04;;;;;;;12.23;7.30;;;;;;;;;;5050818;28;20024;-71
2022/03/11 12:46:29;;;;;;;12.52;6.30;;;;;;;;;;5050368;28;20028;-73
2022/03/11 12:48:54;;;;;;;16.45;7.57;;;;;;;;;;5053432;28;20033;-71
2022/03/11 12:51:23;;;;;;;10.65;6.85;;;;;;;;;;5048917;28;20043;-74
2022/03/11 12:53:49;;;;;;;14.73;7.07;;;;;;;;;;5048833;28;20519;-73
2022/03/11 12:56:14;;;;;;;14.27;7.70;;;;;;;;;;5048375;28;20143;-73
2022/03/11 12:58:39;;;;;;;19.05;7.53;;;;;;;;;;5050465;28;20055;-72
2022/03/11 13:01:07;;;;;;;16.85;7.45;;;;;;;;;;5050202;28;20040;-70
2022/03/11 13:03:36;;;;;;;12.75;7.13;;;;;;;;;;5050315;28;20070;-73
2022/03/11 13:06:05;;;;;;;11.80;7.32;;;;;;;;;;5051465;28;20028;-69
2022/03/11 13:08:30;;;;;;;11.23;7.25;;;;;;;;;;5049034;28;20024;-73
2022/03/11 13:10:55;;;;;;;12.32;7.57;;;;;;;;;;5049300;28;20028;-69
2022/03/11 13:13:21;;;;;;;10.93;7.10;;;;;;;;;;5047689;28;20481;-71
2022/03/11 13:15:47;;;;;;;11.88;7.35;;;;;;;;;;5049235;28;20062;-70
2022/03/11 13:18:19;;;;;;;11.82;7.15;;;;;;;;;;5050008;28;20032;-70
2022/03/11 13:20:47;;;;;;;10.70;7.30;;;;;;;;;;5049690;28;20024;-72
2022/03/11 13:23:15;;;;;;;12.48;7.10;;;;;;;;;;5049955;28;20029;-73
2022/03/11 13:25:41;;;;;;;14.13;7.60;;;;;;;;;;5047335;28;20619;-72
2022/03/11 13:28:06;;;;;;;18.30;9.07;;;;;;;;;;5049161;28;20114;-73
2022/03/11 13:30:35;;;;;;;16.05;7.93;;;;;;;;;;5047476;28;20083;-72
2022/03/11 13:33:10;;;;;;;15.38;7.70;;;;;;;;;;5050137;28;20035;-71
2022/03/11 13:35:35;;;;;;;15.30;7.00;;;;;;;;;;5049932;28;20052;-72
2022/03/11 13:38:00;;;;;;;11.15;7.80;;;;;;;;;;5048271;28;20051;-73
2022/03/11 13:40:26;;;;;;;15.00;8.30;;;;;;;;;;5048420;28;20162;-72
2022/03/11 13:42:55;;;;;;;12.10;7.18;;;;;;;;;;5048256;28;20262;-73
2022/03/11 13:45:25;;;;;;;12.48;7.50;;;;;;;;;;5048530;28;20021;-72
2022/03/11 13:48:00;;;;;;;11.23;7.97;;;;;;;;;;5050451;28;20021;-72
2022/03/11 13:50:25;;;;;;;12.77;8.05;;;;;;;;;;5048084;28;20029;-71
2022/03/11 13:52:53;;;;;;;9.95;7.20;;;;;;;;;;5046318;28;20067;-72
2022/03/11 13:55:19;;;;;;;9.95;7.63;;;;;;;;;;5048085;28;20033;-72
2022/03/11 13:57:45;;;;;;;11.70;8.88;;;;;;;;;;5048753;28;20078;-71
2022/03/11 14:00:17;;;;;;;11.90;7.65;;;;;;;;;;5046577;28;20123;-72
2022/03/11 14:02:43;;;;;;;12.75;7.38;;;;;;;;;;5044789;28;20049;-71
2022/03/11 14:05:19;;;;;;;11.98;7.88;;;;;;;;;;5047163;28;20111;-72
2022/03/11 14:07:46;;;;;;;12.50;7.82;;;;;;;;;;5045051;28;20078;-72
2022/03/11 14:10:19;;;;;;;15.23;8.55;;;;;;;;;;5047384;28;20029;-72
2022/03/11 14:12:44;;;;;;;13.80;7.80;;;;;;;;;;5047807;28;20017;-72
2022/03/11 14:15:11;;;;;;;16.05;8.35;;;;;;;;;;5047547;28;20099;-70
2022/03/11 14:17:36;;;;;;;12.50;8.13;;;;;;;;;;5048500;28;20016;-69